sensor_id;sensor_type;location;lat;lon;timestamp;temperature;humidity
8633;DHT22;4354;49.832;10.746;2023-11-18T00:02:26;-0.70;99.90
8633;DHT22;4354;49.832;10.746;2023-11-18T00:04:53;-0.60;99.90
8633;DHT22;4354;49.832;10.746;2023-11-18T00:07:20;-0.60;99.90
8633;DHT22;4354;49.832;10.746;2023-11-18T00:09:47;-0.60;99.90
8633;DHT22;4354;49.832;10.746;2023-11-18T00:12:14;-0.70;99.90
8633;DHT22;4354;49.832;10.746;2023-11-18T00:14:41;-0.70;99.90
8633;DHT22;4354;49.832;10.746;2023-11-18T00:17:09;-0.70;99.90
8633;DHT22;4354;49.832;10.746;2023-11-18T00:19:36;-0.70;99.90
8633;DHT22;4354;49.832;10.746;2023-11-18T00:22:03;-0.70;99.90
8633;DHT22;4354;49.832;10.746;2023-11-18T00:24:30;-0.60;99.90
8633;DHT22;4354;49.832;10.746;2023-11-18T00:27:01;-0.60;99.90
8633;DHT22;4354;49.832;10.746;2023-11-18T00:29:35;-0.60;99.90
8633;DHT22;4354;49.832;10.746;2023-11-18T00:32:04;-0.70;99.90
8633;DHT22;4354;49.832;10.746;2023-11-18T00:34:31;-0.50;99.90
8633;DHT22;4354;49.832;10.746;2023-11-18T00:36:58;-0.50;99.90
8633;DHT22;4354;49.832;10.746;2023-11-18T00:39:25;-0.50;99.90
8633;DHT22;4354;49.832;10.746;2023-11-18T00:41:52;-0.50;99.90
8633;DHT22;4354;49.832;10.746;2023-11-18T00:44:19;-0.70;99.90
8633;DHT22;4354;49.832;10.746;2023-11-18T00:46:45;-0.60;99.90
8633;DHT22;4354;49.832;10.746;2023-11-18T00:49:12;-0.70;99.90
8633;DHT22;4354;49.832;10.746;2023-11-18T00:51:39;-0.80;99.90
8633;DHT22;4354;49.832;10.746;2023-11-18T00:54:07;-0.70;99.90
8633;DHT22;4354;49.832;10.746;2023-11-18T00:56:34;-0.80;99.90
8633;DHT22;4354;49.832;10.746;2023-11-18T00:59:01;-0.80;99.90
8633;DHT22;4354;49.832;10.746;2023-11-18T01:01:28;-0.80;99.90
8633;DHT22;4354;49.832;10.746;2023-11-18T01:03:55;-0.80;99.90
8633;DHT22;4354;49.832;10.746;2023-11-18T01:06:26;-0.90;99.90
8633;DHT22;4354;49.832;10.746;2023-11-18T01:08:53;-0.80;99.90
8633;DHT22;4354;49.832;10.746;2023-11-18T01:11:20;-0.90;99.90
8633;DHT22;4354;49.832;10.746;2023-11-18T01:13:46;-0.90;99.90
8633;DHT22;4354;49.832;10.746;2023-11-18T01:16:14;-1.00;99.90
8633;DHT22;4354;49.832;10.746;2023-11-18T01:18:42;-1.00;99.90
8633;DHT22;4354;49.832;10.746;2023-11-18T01:21:09;-1.10;99.90
8633;DHT22;4354;49.832;10.746;2023-11-18T01:23:36;-1.10;99.90
8633;DHT22;4354;49.832;10.746;2023-11-18T01:26:06;-0.90;99.90
8633;DHT22;4354;49.832;10.746;2023-11-18T01:28:35;-0.90;99.90
8633;DHT22;4354;49.832;10.746;2023-11-18T01:31:08;-0.90;99.90
8633;DHT22;4354;49.832;10.746;2023-11-18T01:33:40;-0.90;99.90
8633;DHT22;4354;49.832;10.746;2023-11-18T01:36:08;-0.90;99.90
8633;DHT22;4354;49.832;10.746;2023-11-18T01:38:36;-0.90;99.90
8633;DHT22;4354;49.832;10.746;2023-11-18T01:41:06;-0.90;99.90
8633;DHT22;4354;49.832;10.746;2023-11-18T01:43:33;-0.90;99.90
8633;DHT22;4354;49.832;10.746;2023-11-18T01:46:05;-1.00;99.90
8633;DHT22;4354;49.832;10.746;2023-11-18T01:48:34;-1.00;99.90
8633;DHT22;4354;49.832;10.746;2023-11-18T01:51:02;-1.00;99.90
8633;DHT22;4354;49.832;10.746;2023-11-18T01:53:31;-1.10;99.90
8633;DHT22;4354;49.832;10.746;2023-11-18T01:55:57;-1.20;99.90
8633;DHT22;4354;49.832;10.746;2023-11-18T01:58:25;-1.20;99.90
8633;DHT22;4354;49.832;10.746;2023-11-18T02:00:53;-1.30;99.90
8633;DHT22;4354;49.832;10.746;2023-11-18T02:03:20;-1.30;99.90
8633;DHT22;4354;49.832;10.746;2023-11-18T02:05:47;-1.40;99.90
8633;DHT22;4354;49.832;10.746;2023-11-18T02:08:14;-1.50;99.90
8633;DHT22;4354;49.832;10.746;2023-11-18T02:10:48;-1.50;99.90
8633;DHT22;4354;49.832;10.746;2023-11-18T02:13:22;-1.40;99.90
8633;DHT22;4354;49.832;10.746;2023-11-18T02:15:56;-1.30;99.90
8633;DHT22;4354;49.832;10.746;2023-11-18T02:18:29;-1.30;99.90
8633;DHT22;4354;49.832;10.746;2023-11-18T02:20:57;-1.30;99.90
8633;DHT22;4354;49.832;10.746;2023-11-18T02:23:25;-1.30;99.90
8633;DHT22;4354;49.832;10.746;2023-11-18T02:25:53;-1.40;99.90
8633;DHT22;4354;49.832;10.746;2023-11-18T02:28:20;-1.50;99.90
8633;DHT22;4354;49.832;10.746;2023-11-18T02:30:46;-1.50;99.90
8633;DHT22;4354;49.832;10.746;2023-11-18T02:33:33;-1.60;99.90
8633;DHT22;4354;49.832;10.746;2023-11-18T02:36:20;-1.70;99.90
8633;DHT22;4354;49.832;10.746;2023-11-18T02:38:50;-1.70;99.90
8633;DHT22;4354;49.832;10.746;2023-11-18T02:41:17;-1.60;99.90
8633;DHT22;4354;49.832;10.746;2023-11-18T02:43:47;-1.60;99.90
8633;DHT22;4354;49.832;10.746;2023-11-18T02:46:14;-1.70;99.90
8633;DHT22;4354;49.832;10.746;2023-11-18T02:48:41;-1.70;99.90
8633;DHT22;4354;49.832;10.746;2023-11-18T02:51:08;-1.60;99.90
8633;DHT22;4354;49.832;10.746;2023-11-18T02:53:35;-1.60;99.90
8633;DHT22;4354;49.832;10.746;2023-11-18T02:56:02;-1.50;99.90
8633;DHT22;4354;49.832;10.746;2023-11-18T02:58:31;-1.70;99.50
8633;DHT22;4354;49.832;10.746;2023-11-18T03:00:59;-1.80;98.70
8633;DHT22;4354;49.832;10.746;2023-11-18T03:03:26;-1.90;98.90
8633;DHT22;4354;49.832;10.746;2023-11-18T03:05:56;-1.90;99.90
8633;DHT22;4354;49.832;10.746;2023-11-18T03:08:23;-1.90;99.90
8633;DHT22;4354;49.832;10.746;2023-11-18T03:10:50;-1.90;99.90
8633;DHT22;4354;49.832;10.746;2023-11-18T03:13:19;-2.00;99.90
8633;DHT22;4354;49.832;10.746;2023-11-18T03:15:46;-2.00;99.90
8633;DHT22;4354;49.832;10.746;2023-11-18T03:18:15;-2.10;99.90
8633;DHT22;4354;49.832;10.746;2023-11-18T03:20:42;-2.00;99.90
8633;DHT22;4354;49.832;10.746;2023-11-18T03:23:08;-2.00;99.90
8633;DHT22;4354;49.832;10.746;2023-11-18T03:25:35;-2.10;99.90
8633;DHT22;4354;49.832;10.746;2023-11-18T03:28:04;-2.20;98.70
8633;DHT22;4354;49.832;10.746;2023-11-18T03:30:33;-2.20;99.60
8633;DHT22;4354;49.832;10.746;2023-11-18T03:33:00;-2.20;99.60
8633;DHT22;4354;49.832;10.746;2023-11-18T03:35:27;-2.30;98.80
8633;DHT22;4354;49.832;10.746;2023-11-18T03:37:53;-2.30;99.10
8633;DHT22;4354;49.832;10.746;2023-11-18T03:40:21;-2.30;99.90
8633;DHT22;4354;49.832;10.746;2023-11-18T03:42:48;-2.30;99.90
8633;DHT22;4354;49.832;10.746;2023-11-18T03:45:15;-2.30;99.90
8633;DHT22;4354;49.832;10.746;2023-11-18T03:47:44;-2.30;99.90
8633;DHT22;4354;49.832;10.746;2023-11-18T03:50:11;-2.30;99.90
8633;DHT22;4354;49.832;10.746;2023-11-18T03:52:40;-2.30;99.90
8633;DHT22;4354;49.832;10.746;2023-11-18T03:55:07;-2.30;99.90
8633;DHT22;4354;49.832;10.746;2023-11-18T03:57:34;-2.20;99.90
8633;DHT22;4354;49.832;10.746;2023-11-18T04:00:02;-2.20;99.90
8633;DHT22;4354;49.832;10.746;2023-11-18T04:02:29;-2.20;99.90
8633;DHT22;4354;49.832;10.746;2023-11-18T04:04:56;-2.20;99.90
8633;DHT22;4354;49.832;10.746;2023-11-18T04:07:23;-2.20;99.90
8633;DHT22;4354;49.832;10.746;2023-11-18T04:09:50;-2.10;99.90
8633;DHT22;4354;49.832;10.746;2023-11-18T04:12:16;-2.10;99.90
8633;DHT22;4354;49.832;10.746;2023-11-18T04:14:43;-2.10;99.90
8633;DHT22;4354;49.832;10.746;2023-11-18T04:17:10;-2.10;99.90
8633;DHT22;4354;49.832;10.746;2023-11-18T04:19:37;-2.10;99.90
8633;DHT22;4354;49.832;10.746;2023-11-18T04:22:05;-2.10;99.90
8633;DHT22;4354;49.832;10.746;2023-11-18T04:24:32;-2.10;99.90
8633;DHT22;4354;49.832;10.746;2023-11-18T04:26:59;-2.10;99.90
8633;DHT22;4354;49.832;10.746;2023-11-18T04:29:26;-2.10;99.90
8633;DHT22;4354;49.832;10.746;2023-11-18T04:31:53;-2.10;99.90
8633;DHT22;4354;49.832;10.746;2023-11-18T04:34:20;-2.00;99.90
8633;DHT22;4354;49.832;10.746;2023-11-18T04:36:47;-2.00;99.90
8633;DHT22;4354;49.832;10.746;2023-11-18T04:39:14;-2.00;99.90
8633;DHT22;4354;49.832;10.746;2023-11-18T04:41:42;-1.90;99.90
8633;DHT22;4354;49.832;10.746;2023-11-18T04:44:09;-1.90;99.90
8633;DHT22;4354;49.832;10.746;2023-11-18T04:46:36;-1.90;99.90
8633;DHT22;4354;49.832;10.746;2023-11-18T04:49:03;-1.80;99.90
8633;DHT22;4354;49.832;10.746;2023-11-18T04:51:32;-1.80;99.90
8633;DHT22;4354;49.832;10.746;2023-11-18T04:53:59;-1.80;99.90
8633;DHT22;4354;49.832;10.746;2023-11-18T04:56:26;-1.70;99.90
8633;DHT22;4354;49.832;10.746;2023-11-18T04:58:53;-1.70;99.90
8633;DHT22;4354;49.832;10.746;2023-11-18T05:01:20;-1.70;99.90
8633;DHT22;4354;49.832;10.746;2023-11-18T05:03:47;-1.70;99.90
8633;DHT22;4354;49.832;10.746;2023-11-18T05:06:14;-1.70;99.90
8633;DHT22;4354;49.832;10.746;2023-11-18T05:08:41;-1.70;99.90
8633;DHT22;4354;49.832;10.746;2023-11-18T05:11:08;-1.70;99.90
8633;DHT22;4354;49.832;10.746;2023-11-18T05:13:35;-1.70;99.90
8633;DHT22;4354;49.832;10.746;2023-11-18T05:16:02;-1.70;99.90
8633;DHT22;4354;49.832;10.746;2023-11-18T05:18:30;-1.80;99.90
8633;DHT22;4354;49.832;10.746;2023-11-18T05:21:02;-1.80;99.90
8633;DHT22;4354;49.832;10.746;2023-11-18T05:23:33;-1.80;99.90
8633;DHT22;4354;49.832;10.746;2023-11-18T05:26:00;-1.80;99.90
8633;DHT22;4354;49.832;10.746;2023-11-18T05:28:27;-1.80;99.90
8633;DHT22;4354;49.832;10.746;2023-11-18T05:30:54;-1.70;99.90
8633;DHT22;4354;49.832;10.746;2023-11-18T05:33:24;-1.70;99.90
8633;DHT22;4354;49.832;10.746;2023-11-18T05:35:51;-1.70;99.90
8633;DHT22;4354;49.832;10.746;2023-11-18T05:38:19;-1.70;99.90
8633;DHT22;4354;49.832;10.746;2023-11-18T05:40:48;-1.80;99.90
8633;DHT22;4354;49.832;10.746;2023-11-18T05:43:25;-1.80;99.90
8633;DHT22;4354;49.832;10.746;2023-11-18T05:45:55;-1.90;99.90
8633;DHT22;4354;49.832;10.746;2023-11-18T05:48:44;-2.00;99.90
8633;DHT22;4354;49.832;10.746;2023-11-18T05:51:11;-2.10;99.90
8633;DHT22;4354;49.832;10.746;2023-11-18T05:53:42;-2.10;99.90
8633;DHT22;4354;49.832;10.746;2023-11-18T05:56:16;-2.20;99.90
8633;DHT22;4354;49.832;10.746;2023-11-18T05:58:44;-2.20;99.90
8633;DHT22;4354;49.832;10.746;2023-11-18T06:01:12;-2.10;99.90
8633;DHT22;4354;49.832;10.746;2023-11-18T06:03:39;-2.20;99.90
8633;DHT22;4354;49.832;10.746;2023-11-18T06:06:10;-2.20;99.90
8633;DHT22;4354;49.832;10.746;2023-11-18T06:08:38;-2.20;99.90
8633;DHT22;4354;49.832;10.746;2023-11-18T06:11:10;-2.30;99.90
8633;DHT22;4354;49.832;10.746;2023-11-18T06:16:24;-2.30;99.90
8633;DHT22;4354;49.832;10.746;2023-11-18T06:18:53;-2.30;99.90
8633;DHT22;4354;49.832;10.746;2023-11-18T06:21:22;-2.30;99.90
8633;DHT22;4354;49.832;10.746;2023-11-18T06:23:54;-2.30;99.90
8633;DHT22;4354;49.832;10.746;2023-11-18T06:26:22;-2.40;99.90
8633;DHT22;4354;49.832;10.746;2023-11-18T06:28:49;-2.40;99.90
8633;DHT22;4354;49.832;10.746;2023-11-18T06:31:16;-2.40;99.90
8633;DHT22;4354;49.832;10.746;2023-11-18T06:33:44;-2.40;99.90
8633;DHT22;4354;49.832;10.746;2023-11-18T06:38:41;-2.30;99.90
8633;DHT22;4354;49.832;10.746;2023-11-18T06:41:08;-2.40;99.90
8633;DHT22;4354;49.832;10.746;2023-11-18T06:43:39;-2.40;99.90
8633;DHT22;4354;49.832;10.746;2023-11-18T06:46:29;-2.40;99.90
8633;DHT22;4354;49.832;10.746;2023-11-18T06:49:00;-2.40;99.90
8633;DHT22;4354;49.832;10.746;2023-11-18T06:51:31;-2.30;99.90
8633;DHT22;4354;49.832;10.746;2023-11-18T06:54:02;-2.30;99.90
8633;DHT22;4354;49.832;10.746;2023-11-18T06:56:41;-2.30;99.90
8633;DHT22;4354;49.832;10.746;2023-11-18T06:59:10;-2.20;99.90
8633;DHT22;4354;49.832;10.746;2023-11-18T07:01:40;-2.10;99.90
8633;DHT22;4354;49.832;10.746;2023-11-18T07:04:07;-2.00;99.90
8633;DHT22;4354;49.832;10.746;2023-11-18T07:06:37;-2.00;99.90
8633;DHT22;4354;49.832;10.746;2023-11-18T07:09:07;-1.90;99.90
8633;DHT22;4354;49.832;10.746;2023-11-18T07:11:45;-1.90;99.90
8633;DHT22;4354;49.832;10.746;2023-11-18T07:14:14;-1.90;99.90
8633;DHT22;4354;49.832;10.746;2023-11-18T07:16:44;-1.70;99.90
8633;DHT22;4354;49.832;10.746;2023-11-18T07:19:12;-1.70;99.90
8633;DHT22;4354;49.832;10.746;2023-11-18T07:21:47;-1.80;99.90
8633;DHT22;4354;49.832;10.746;2023-11-18T07:24:14;-1.70;99.90
8633;DHT22;4354;49.832;10.746;2023-11-18T07:26:41;-1.60;99.90
8633;DHT22;4354;49.832;10.746;2023-11-18T07:29:08;-1.60;99.90
8633;DHT22;4354;49.832;10.746;2023-11-18T07:31:34;-1.60;99.90
8633;DHT22;4354;49.832;10.746;2023-11-18T07:34:04;-1.60;99.90
8633;DHT22;4354;49.832;10.746;2023-11-18T07:36:33;-1.60;99.90
8633;DHT22;4354;49.832;10.746;2023-11-18T07:39:00;-1.50;99.90
8633;DHT22;4354;49.832;10.746;2023-11-18T07:41:28;-1.30;99.90
8633;DHT22;4354;49.832;10.746;2023-11-18T07:43:59;-1.20;99.90
8633;DHT22;4354;49.832;10.746;2023-11-18T07:46:26;-1.20;99.90
8633;DHT22;4354;49.832;10.746;2023-11-18T07:48:53;-1.20;99.90
8633;DHT22;4354;49.832;10.746;2023-11-18T07:51:20;-1.20;99.90
8633;DHT22;4354;49.832;10.746;2023-11-18T07:53:48;-1.20;99.70
8633;DHT22;4354;49.832;10.746;2023-11-18T07:56:15;-1.10;99.90
8633;DHT22;4354;49.832;10.746;2023-11-18T07:58:43;-1.00;99.90
8633;DHT22;4354;49.832;10.746;2023-11-18T08:01:14;-0.80;99.90
8633;DHT22;4354;49.832;10.746;2023-11-18T08:03:44;-0.70;99.90
8633;DHT22;4354;49.832;10.746;2023-11-18T08:06:11;-0.50;99.90
8633;DHT22;4354;49.832;10.746;2023-11-18T08:08:39;-0.40;99.90
8633;DHT22;4354;49.832;10.746;2023-11-18T08:11:10;-0.30;99.90
8633;DHT22;4354;49.832;10.746;2023-11-18T08:13:39;-0.20;99.90
8633;DHT22;4354;49.832;10.746;2023-11-18T08:16:06;-0.30;93.80
8633;DHT22;4354;49.832;10.746;2023-11-18T08:18:35;-0.40;87.10
8633;DHT22;4354;49.832;10.746;2023-11-18T08:21:02;-0.40;90.10
8633;DHT22;4354;49.832;10.746;2023-11-18T08:23:31;-0.40;94.20
8633;DHT22;4354;49.832;10.746;2023-11-18T08:25:58;-0.20;99.90
8633;DHT22;4354;49.832;10.746;2023-11-18T08:28:25;0.00;99.90
8633;DHT22;4354;49.832;10.746;2023-11-18T08:30:52;0.00;99.90
8633;DHT22;4354;49.832;10.746;2023-11-18T08:33:20;0.10;98.00
8633;DHT22;4354;49.832;10.746;2023-11-18T08:35:48;0.20;97.40
8633;DHT22;4354;49.832;10.746;2023-11-18T08:38:15;0.20;93.90
8633;DHT22;4354;49.832;10.746;2023-11-18T08:40:42;0.20;91.40
8633;DHT22;4354;49.832;10.746;2023-11-18T08:43:09;0.30;95.30
8633;DHT22;4354;49.832;10.746;2023-11-18T08:45:38;0.40;93.30
8633;DHT22;4354;49.832;10.746;2023-11-18T08:48:05;0.50;90.40
8633;DHT22;4354;49.832;10.746;2023-11-18T08:50:37;0.70;93.30
8633;DHT22;4354;49.832;10.746;2023-11-18T08:53:07;0.80;97.90
8633;DHT22;4354;49.832;10.746;2023-11-18T08:55:37;0.90;93.00
8633;DHT22;4354;49.832;10.746;2023-11-18T08:58:11;0.90;66.70
8633;DHT22;4354;49.832;10.746;2023-11-18T09:00:57;0.80;65.40
8633;DHT22;4354;49.832;10.746;2023-11-18T09:03:41;0.90;67.80
8633;DHT22;4354;49.832;10.746;2023-11-18T09:06:15;0.80;55.00
8633;DHT22;4354;49.832;10.746;2023-11-18T09:08:52;0.90;64.60
8633;DHT22;4354;49.832;10.746;2023-11-18T09:11:25;1.00;65.30
8633;DHT22;4354;49.832;10.746;2023-11-18T09:13:56;1.00;54.70
8633;DHT22;4354;49.832;10.746;2023-11-18T09:16:28;1.10;52.10
8633;DHT22;4354;49.832;10.746;2023-11-18T09:18:56;1.10;47.50
8633;DHT22;4354;49.832;10.746;2023-11-18T09:21:26;1.20;45.60
8633;DHT22;4354;49.832;10.746;2023-11-18T09:23:56;1.10;24.10
8633;DHT22;4354;49.832;10.746;2023-11-18T09:26:23;1.20;36.00
8633;DHT22;4354;49.832;10.746;2023-11-18T09:28:52;1.40;56.50
8633;DHT22;4354;49.832;10.746;2023-11-18T09:31:20;1.60;56.00
8633;DHT22;4354;49.832;10.746;2023-11-18T09:33:48;1.90;73.40
8633;DHT22;4354;49.832;10.746;2023-11-18T09:36:24;2.10;33.50
8633;DHT22;4354;49.832;10.746;2023-11-18T09:38:50;2.30;11.50
8633;DHT22;4354;49.832;10.746;2023-11-18T09:41:18;2.50;1.00
8633;DHT22;4354;49.832;10.746;2023-11-18T09:43:46;2.60;1.00
8633;DHT22;4354;49.832;10.746;2023-11-18T09:46:28;2.60;1.00
8633;DHT22;4354;49.832;10.746;2023-11-18T09:49:15;2.60;1.00
8633;DHT22;4354;49.832;10.746;2023-11-18T09:51:45;2.80;1.00
8633;DHT22;4354;49.832;10.746;2023-11-18T09:54:23;2.90;1.00
8633;DHT22;4354;49.832;10.746;2023-11-18T09:57:19;3.00;1.00
8633;DHT22;4354;49.832;10.746;2023-11-18T10:02:39;3.40;1.00
8633;DHT22;4354;49.832;10.746;2023-11-18T10:05:07;3.60;1.00
8633;DHT22;4354;49.832;10.746;2023-11-18T10:10:09;4.00;1.00
8633;DHT22;4354;49.832;10.746;2023-11-18T10:12:45;4.00;1.00
8633;DHT22;4354;49.832;10.746;2023-11-18T10:15:21;3.90;1.00
8633;DHT22;4354;49.832;10.746;2023-11-18T10:17:51;4.10;1.00
8633;DHT22;4354;49.832;10.746;2023-11-18T10:20:46;4.30;1.00
8633;DHT22;4354;49.832;10.746;2023-11-18T10:23:21;4.10;1.00
8633;DHT22;4354;49.832;10.746;2023-11-18T10:25:50;4.20;1.00
8633;DHT22;4354;49.832;10.746;2023-11-18T10:28:35;4.00;1.00
8633;DHT22;4354;49.832;10.746;2023-11-18T10:31:06;4.00;1.00
8633;DHT22;4354;49.832;10.746;2023-11-18T10:36:04;4.10;1.00
8633;DHT22;4354;49.832;10.746;2023-11-18T10:38:37;4.20;1.00
8633;DHT22;4354;49.832;10.746;2023-11-18T10:41:06;4.10;1.00
8633;DHT22;4354;49.832;10.746;2023-11-18T10:43:33;3.90;1.00
8633;DHT22;4354;49.832;10.746;2023-11-18T10:46:09;4.00;1.00
8633;DHT22;4354;49.832;10.746;2023-11-18T10:48:42;4.10;1.00
8633;DHT22;4354;49.832;10.746;2023-11-18T10:51:10;4.10;1.00
8633;DHT22;4354;49.832;10.746;2023-11-18T10:53:40;4.20;1.00
8633;DHT22;4354;49.832;10.746;2023-11-18T10:56:20;4.30;1.00
8633;DHT22;4354;49.832;10.746;2023-11-18T10:58:56;4.50;1.00
8633;DHT22;4354;49.832;10.746;2023-11-18T11:01:32;4.50;1.00
8633;DHT22;4354;49.832;10.746;2023-11-18T11:04:00;4.50;1.00
8633;DHT22;4354;49.832;10.746;2023-11-18T11:06:32;4.60;1.00
8633;DHT22;4354;49.832;10.746;2023-11-18T11:08:59;4.40;1.00
8633;DHT22;4354;49.832;10.746;2023-11-18T11:11:34;4.50;1.00
8633;DHT22;4354;49.832;10.746;2023-11-18T11:14:04;4.50;1.00
8633;DHT22;4354;49.832;10.746;2023-11-18T11:16:42;4.40;1.00
8633;DHT22;4354;49.832;10.746;2023-11-18T11:19:25;4.50;1.00
8633;DHT22;4354;49.832;10.746;2023-11-18T11:22:04;4.30;1.00
8633;DHT22;4354;49.832;10.746;2023-11-18T11:27:25;4.40;1.00
8633;DHT22;4354;49.832;10.746;2023-11-18T11:30:10;4.40;1.00
8633;DHT22;4354;49.832;10.746;2023-11-18T11:32:51;4.40;1.00
8633;DHT22;4354;49.832;10.746;2023-11-18T11:35:30;4.40;1.00
8633;DHT22;4354;49.832;10.746;2023-11-18T11:37:59;4.50;1.00
8633;DHT22;4354;49.832;10.746;2023-11-18T11:40:41;4.40;1.00
8633;DHT22;4354;49.832;10.746;2023-11-18T11:43:10;4.40;1.00
8633;DHT22;4354;49.832;10.746;2023-11-18T11:45:50;4.40;1.00
8633;DHT22;4354;49.832;10.746;2023-11-18T11:48:18;4.50;1.00
8633;DHT22;4354;49.832;10.746;2023-11-18T11:50:54;4.60;1.00
8633;DHT22;4354;49.832;10.746;2023-11-18T11:53:24;4.60;1.00
8633;DHT22;4354;49.832;10.746;2023-11-18T11:55:54;4.50;1.00
8633;DHT22;4354;49.832;10.746;2023-11-18T11:58:33;4.60;1.00
8633;DHT22;4354;49.832;10.746;2023-11-18T12:01:24;4.60;1.00
8633;DHT22;4354;49.832;10.746;2023-11-18T12:03:57;4.70;1.00
8633;DHT22;4354;49.832;10.746;2023-11-18T12:06:26;4.70;1.00
8633;DHT22;4354;49.832;10.746;2023-11-18T12:08:53;4.80;1.00
8633;DHT22;4354;49.832;10.746;2023-11-18T12:11:21;4.70;1.00
8633;DHT22;4354;49.832;10.746;2023-11-18T12:14:02;4.60;1.00
8633;DHT22;4354;49.832;10.746;2023-11-18T12:16:59;4.60;1.00
8633;DHT22;4354;49.832;10.746;2023-11-18T12:19:50;4.50;1.00
8633;DHT22;4354;49.832;10.746;2023-11-18T12:22:23;4.40;1.00
8633;DHT22;4354;49.832;10.746;2023-11-18T12:32:59;4.50;1.00
8633;DHT22;4354;49.832;10.746;2023-11-18T12:46:50;4.90;1.00
8633;DHT22;4354;49.832;10.746;2023-11-18T12:49:24;4.90;1.00
8633;DHT22;4354;49.832;10.746;2023-11-18T12:51:55;5.00;1.00
8633;DHT22;4354;49.832;10.746;2023-11-18T12:54:23;5.20;1.00
8633;DHT22;4354;49.832;10.746;2023-11-18T12:56:55;5.10;1.00
8633;DHT22;4354;49.832;10.746;2023-11-18T12:59:22;5.10;1.00
8633;DHT22;4354;49.832;10.746;2023-11-18T13:01:50;5.10;1.00
8633;DHT22;4354;49.832;10.746;2023-11-18T13:04:20;5.00;1.00
8633;DHT22;4354;49.832;10.746;2023-11-18T13:06:47;5.00;1.00
8633;DHT22;4354;49.832;10.746;2023-11-18T13:09:15;5.00;1.00
8633;DHT22;4354;49.832;10.746;2023-11-18T13:11:56;5.00;1.00
8633;DHT22;4354;49.832;10.746;2023-11-18T13:14:28;5.00;1.00
8633;DHT22;4354;49.832;10.746;2023-11-18T13:17:03;5.10;1.00
8633;DHT22;4354;49.832;10.746;2023-11-18T13:19:33;5.00;1.00
8633;DHT22;4354;49.832;10.746;2023-11-18T13:22:02;5.00;1.00
8633;DHT22;4354;49.832;10.746;2023-11-18T13:24:35;5.10;1.00
8633;DHT22;4354;49.832;10.746;2023-11-18T13:27:08;5.10;1.00
8633;DHT22;4354;49.832;10.746;2023-11-18T13:29:36;5.10;1.00
8633;DHT22;4354;49.832;10.746;2023-11-18T13:32:06;5.10;1.00
8633;DHT22;4354;49.832;10.746;2023-11-18T13:34:34;5.10;1.00
8633;DHT22;4354;49.832;10.746;2023-11-18T13:37:06;5.10;1.00
8633;DHT22;4354;49.832;10.746;2023-11-18T13:39:34;5.10;1.00
8633;DHT22;4354;49.832;10.746;2023-11-18T13:42:20;5.00;1.00
8633;DHT22;4354;49.832;10.746;2023-11-18T13:44:48;5.10;1.00
8633;DHT22;4354;49.832;10.746;2023-11-18T13:47:21;5.10;1.00
8633;DHT22;4354;49.832;10.746;2023-11-18T13:49:50;5.10;1.00
8633;DHT22;4354;49.832;10.746;2023-11-18T13:52:17;5.10;1.00
8633;DHT22;4354;49.832;10.746;2023-11-18T13:54:47;5.10;1.00
8633;DHT22;4354;49.832;10.746;2023-11-18T13:57:14;5.00;1.00
8633;DHT22;4354;49.832;10.746;2023-11-18T13:59:41;5.10;1.00
8633;DHT22;4354;49.832;10.746;2023-11-18T14:02:11;5.10;1.00
8633;DHT22;4354;49.832;10.746;2023-11-18T14:04:39;5.10;1.00
8633;DHT22;4354;49.832;10.746;2023-11-18T14:07:13;5.10;1.00
8633;DHT22;4354;49.832;10.746;2023-11-18T14:09:43;5.10;1.00
8633;DHT22;4354;49.832;10.746;2023-11-18T14:12:13;5.00;1.00
8633;DHT22;4354;49.832;10.746;2023-11-18T14:14:40;5.00;2.50
8633;DHT22;4354;49.832;10.746;2023-11-18T14:17:07;5.00;1.00
8633;DHT22;4354;49.832;10.746;2023-11-18T14:19:37;5.00;5.70
8633;DHT22;4354;49.832;10.746;2023-11-18T14:22:04;5.00;1.00
8633;DHT22;4354;49.832;10.746;2023-11-18T14:24:34;4.80;8.60
8633;DHT22;4354;49.832;10.746;2023-11-18T14:27:01;4.80;16.80
8633;DHT22;4354;49.832;10.746;2023-11-18T14:29:28;4.80;21.70
8633;DHT22;4354;49.832;10.746;2023-11-18T14:31:56;4.80;28.50
8633;DHT22;4354;49.832;10.746;2023-11-18T14:34:23;4.80;30.90
8633;DHT22;4354;49.832;10.746;2023-11-18T14:36:50;4.70;31.10
8633;DHT22;4354;49.832;10.746;2023-11-18T14:39:17;4.70;36.90
8633;DHT22;4354;49.832;10.746;2023-11-18T14:41:48;4.60;44.90
8633;DHT22;4354;49.832;10.746;2023-11-18T14:44:16;4.60;49.90
8633;DHT22;4354;49.832;10.746;2023-11-18T14:46:44;4.60;57.10
8633;DHT22;4354;49.832;10.746;2023-11-18T14:49:11;4.50;62.60
8633;DHT22;4354;49.832;10.746;2023-11-18T14:51:38;4.50;65.50
8633;DHT22;4354;49.832;10.746;2023-11-18T14:54:06;4.50;72.40
8633;DHT22;4354;49.832;10.746;2023-11-18T14:56:34;4.50;74.90
8633;DHT22;4354;49.832;10.746;2023-11-18T14:59:02;4.50;76.60
8633;DHT22;4354;49.832;10.746;2023-11-18T15:01:32;4.50;75.90
8633;DHT22;4354;49.832;10.746;2023-11-18T15:03:59;4.40;76.80
8633;DHT22;4354;49.832;10.746;2023-11-18T15:06:27;4.40;81.50
8633;DHT22;4354;49.832;10.746;2023-11-18T15:08:54;4.40;81.40
8633;DHT22;4354;49.832;10.746;2023-11-18T15:11:24;4.40;83.40
8633;DHT22;4354;49.832;10.746;2023-11-18T15:13:51;4.40;86.30
8633;DHT22;4354;49.832;10.746;2023-11-18T15:16:23;4.30;88.00
8633;DHT22;4354;49.832;10.746;2023-11-18T15:18:50;4.30;89.40
8633;DHT22;4354;49.832;10.746;2023-11-18T15:21:19;4.20;91.10
8633;DHT22;4354;49.832;10.746;2023-11-18T15:23:46;4.20;91.80
8633;DHT22;4354;49.832;10.746;2023-11-18T15:26:15;4.20;94.00
8633;DHT22;4354;49.832;10.746;2023-11-18T15:28:42;4.20;94.10
8633;DHT22;4354;49.832;10.746;2023-11-18T15:31:09;4.20;94.80
8633;DHT22;4354;49.832;10.746;2023-11-18T15:33:35;4.20;95.00
8633;DHT22;4354;49.832;10.746;2023-11-18T15:36:02;4.10;95.50
8633;DHT22;4354;49.832;10.746;2023-11-18T15:38:30;4.10;97.30
8633;DHT22;4354;49.832;10.746;2023-11-18T15:40:56;4.10;97.60
8633;DHT22;4354;49.832;10.746;2023-11-18T15:43:23;4.10;98.20
8633;DHT22;4354;49.832;10.746;2023-11-18T15:45:50;4.10;98.70
8633;DHT22;4354;49.832;10.746;2023-11-18T15:48:18;4.00;99.10
8633;DHT22;4354;49.832;10.746;2023-11-18T15:50:45;4.00;99.40
8633;DHT22;4354;49.832;10.746;2023-11-18T15:53:11;4.00;99.90
8633;DHT22;4354;49.832;10.746;2023-11-18T15:55:42;4.00;99.90
8633;DHT22;4354;49.832;10.746;2023-11-18T15:58:13;4.00;99.90
8633;DHT22;4354;49.832;10.746;2023-11-18T16:00:40;4.00;99.90
8633;DHT22;4354;49.832;10.746;2023-11-18T16:03:07;4.00;99.90
8633;DHT22;4354;49.832;10.746;2023-11-18T16:05:35;4.00;99.90
8633;DHT22;4354;49.832;10.746;2023-11-18T16:08:03;4.00;99.90
8633;DHT22;4354;49.832;10.746;2023-11-18T16:10:31;4.00;99.90
8633;DHT22;4354;49.832;10.746;2023-11-18T16:13:00;4.00;99.90
8633;DHT22;4354;49.832;10.746;2023-11-18T16:15:30;4.00;99.90
8633;DHT22;4354;49.832;10.746;2023-11-18T16:17:59;4.00;99.90
8633;DHT22;4354;49.832;10.746;2023-11-18T16:20:29;4.00;99.90
8633;DHT22;4354;49.832;10.746;2023-11-18T16:23:00;4.00;99.90
8633;DHT22;4354;49.832;10.746;2023-11-18T16:25:32;4.00;99.90
8633;DHT22;4354;49.832;10.746;2023-11-18T16:28:01;4.00;99.90
8633;DHT22;4354;49.832;10.746;2023-11-18T16:30:29;4.00;99.90
8633;DHT22;4354;49.832;10.746;2023-11-18T16:32:58;4.00;99.90
8633;DHT22;4354;49.832;10.746;2023-11-18T16:35:25;4.00;99.90
8633;DHT22;4354;49.832;10.746;2023-11-18T16:37:53;4.00;99.90
8633;DHT22;4354;49.832;10.746;2023-11-18T16:40:20;4.00;99.90
8633;DHT22;4354;49.832;10.746;2023-11-18T16:42:51;4.10;99.90
8633;DHT22;4354;49.832;10.746;2023-11-18T16:45:19;4.10;99.90
8633;DHT22;4354;49.832;10.746;2023-11-18T16:47:48;4.10;99.90
8633;DHT22;4354;49.832;10.746;2023-11-18T16:50:20;4.10;99.90